Time;durP1;ratioP1;P1;durP2;ratioP2;P2;SDS_P1;SDS_P2;PMS_P1;PMS_P2;Temp;Humidity;BMP_temperature;BMP_pressure;BME280_temperature;BME280_humidity;BME280_pressure;Samples;Min_cycle;Max_cycle;Signal;HPM_P1;HPM_P2
2024/04/05 00:01:33;;;;;;;8.00;1.50;;;13.00;99.90;;;;;;5047570;28;20458;-68
2024/04/05 00:04:03;;;;;;;8.10;1.70;;;12.90;99.90;;;;;;5049882;28;20528;-69
2024/04/05 00:06:30;;;;;;;7.67;1.40;;;12.80;99.90;;;;;;5046859;28;20473;-69
2024/04/05 00:08:56;;;;;;;8.37;1.53;;;12.90;99.90;;;;;;5045981;28;20447;-68
2024/04/05 00:11:23;;;;;;;8.87;1.50;;;12.90;99.90;;;;;;5044200;28;20456;-68
2024/04/05 00:13:51;;;;;;;8.33;1.63;;;13.00;99.90;;;;;;5046430;28;20447;-69
2024/04/05 00:16:18;;;;;;;9.70;1.80;;;13.00;99.90;;;;;;5046540;28;20470;-69
2024/04/05 00:18:44;;;;;;;9.23;1.40;;;13.00;99.90;;;;;;5047752;28;20455;-68
2024/04/05 00:21:11;;;;;;;8.57;1.47;;;13.10;99.90;;;;;;5046449;28;20516;-68
2024/04/05 00:23:37;;;;;;;7.57;1.40;;;13.00;99.90;;;;;;5047916;28;20475;-69
2024/04/05 00:26:06;;;;;;;7.23;1.40;;;13.10;99.90;;;;;;5046928;28;20474;-70
2024/04/05 00:28:35;;;;;;;7.60;1.50;;;13.00;99.90;;;;;;5052999;28;20459;-69
2024/04/05 00:31:04;;;;;;;7.70;1.40;;;13.10;99.90;;;;;;5048374;28;20453;-68
2024/04/05 00:33:31;;;;;;;7.40;1.57;;;13.20;99.90;;;;;;5047913;28;21240;-68
2024/04/05 00:35:58;;;;;;;7.27;1.20;;;13.30;99.90;;;;;;5048222;28;20462;-68
2024/04/05 00:38:25;;;;;;;9.13;2.00;;;13.30;99.90;;;;;;5048973;28;20469;-68
2024/04/05 00:40:53;;;;;;;9.23;1.90;;;13.20;99.90;;;;;;5048727;28;20449;-68
2024/04/05 00:43:20;;;;;;;10.73;2.27;;;13.20;99.90;;;;;;5045612;28;20447;-68
2024/04/05 00:45:48;;;;;;;7.77;1.63;;;13.10;99.90;;;;;;5027253;28;1061797;-68
2024/04/05 00:48:20;;;;;;;9.90;1.60;;;12.90;99.90;;;;;;5047615;28;20205;-68
2024/04/05 00:50:50;;;;;;;6.97;1.70;;;12.70;99.90;;;;;;5048383;28;20516;-68
2024/04/05 00:53:19;;;;;;;7.17;1.53;;;12.60;99.90;;;;;;5065671;28;20439;-69
2024/04/05 00:55:47;;;;;;;9.37;1.70;;;12.60;99.90;;;;;;5044324;28;20466;-68
2024/04/05 00:58:14;;;;;;;7.53;1.90;;;12.60;99.90;;;;;;5044863;28;20463;-67
2024/04/05 01:00:41;;;;;;;7.27;1.67;;;12.50;99.90;;;;;;5049897;28;20477;-68
2024/04/05 01:03:07;;;;;;;10.40;1.50;;;12.60;99.90;;;;;;5049549;28;20447;-68
2024/04/05 01:05:38;;;;;;;8.83;1.73;;;12.70;99.90;;;;;;5055038;28;20491;-68
2024/04/05 01:08:07;;;;;;;8.50;2.00;;;12.80;99.90;;;;;;5052408;28;20520;-68
2024/04/05 01:10:35;;;;;;;7.57;2.10;;;12.80;99.90;;;;;;5049228;28;20475;-68
2024/04/05 01:13:02;;;;;;;6.37;1.37;;;12.90;99.90;;;;;;5049484;28;20788;-68
2024/04/05 01:15:29;;;;;;;7.20;1.30;;;13.00;99.90;;;;;;5049221;28;20480;-70
2024/04/05 01:17:58;;;;;;;7.53;1.60;;;13.00;99.90;;;;;;5050182;28;20510;-68
2024/04/05 01:20:27;;;;;;;7.23;1.57;;;13.10;99.90;;;;;;5049973;28;20527;-68
2024/04/05 01:22:59;;;;;;;8.30;1.50;;;13.10;99.90;;;;;;5067019;28;20458;-68
2024/04/05 01:25:27;;;;;;;8.70;1.77;;;13.10;99.90;;;;;;5049967;28;21173;-69
2024/04/05 01:27:53;;;;;;;7.20;2.10;;;13.20;99.90;;;;;;5050919;28;20439;-68
2024/04/05 01:30:20;;;;;;;7.77;1.67;;;13.20;99.90;;;;;;5050012;28;20447;-68
2024/04/05 01:32:52;;;;;;;8.20;2.20;;;13.20;99.90;;;;;;5050685;28;20439;-68
2024/04/05 01:35:19;;;;;;;9.03;1.80;;;13.20;99.90;;;;;;5049997;28;20544;-68
2024/04/05 01:37:45;;;;;;;9.97;2.53;;;13.30;99.90;;;;;;5041617;28;20459;-68
2024/04/05 01:40:12;;;;;;;9.23;1.77;;;13.20;99.90;;;;;;5050389;28;20444;-69
2024/04/05 01:42:39;;;;;;;8.00;2.03;;;13.30;99.90;;;;;;5050216;28;20453;-69
2024/04/05 01:45:07;;;;;;;11.10;2.30;;;13.30;99.90;;;;;;5048921;28;21094;-67
2024/04/05 01:47:33;;;;;;;11.10;3.53;;;13.30;99.90;;;;;;5048121;28;20477;-67
2024/04/05 01:50:00;;;;;;;8.13;2.17;;;13.20;99.90;;;;;;5048203;28;20458;-68
2024/04/05 01:52:26;;;;;;;11.20;2.43;;;13.10;99.90;;;;;;5066127;28;20467;-68
2024/04/05 01:54:53;;;;;;;7.37;2.10;;;13.20;99.90;;;;;;5048120;28;20582;-69
2024/04/05 01:57:19;;;;;;;10.97;1.90;;;13.20;99.90;;;;;;5049370;28;20438;-69
2024/04/05 01:59:49;;;;;;;8.13;2.00;;;13.20;99.90;;;;;;5046239;28;21141;-69
2024/04/05 02:02:15;;;;;;;10.50;2.30;;;13.30;99.90;;;;;;5041257;28;20650;-68
2024/04/05 02:04:42;;;;;;;10.00;2.57;;;13.20;99.90;;;;;;5048964;28;20560;-68
2024/04/05 02:07:08;;;;;;;8.80;2.10;;;13.10;99.90;;;;;;5066321;28;20466;-68
2024/04/05 02:09:35;;;;;;;8.40;2.80;;;13.10;99.90;;;;;;5049440;28;20485;-69
2024/04/05 02:12:01;;;;;;;8.03;1.90;;;13.10;99.90;;;;;;5049519;28;20462;-68
2024/04/05 02:14:28;;;;;;;8.20;2.17;;;13.10;99.90;;;;;;5065673;28;20512;-69
2024/04/05 02:16:57;;;;;;;8.13;2.00;;;13.00;99.90;;;;;;5049384;28;20830;-68
2024/04/05 02:19:24;;;;;;;10.67;2.60;;;12.80;99.90;;;;;;5049271;28;20454;-69
2024/04/05 02:21:51;;;;;;;9.10;2.20;;;13.00;99.90;;;;;;5049094;28;20443;-69
2024/04/05 02:24:18;;;;;;;8.83;1.97;;;13.00;99.90;;;;;;5048114;28;20489;-68
2024/04/05 02:26:44;;;;;;;10.87;2.60;;;12.80;99.90;;;;;;5049246;28;20447;-69
2024/04/05 02:29:11;;;;;;;8.37;2.10;;;12.90;99.90;;;;;;5048632;28;20468;-68
2024/04/05 02:31:37;;;;;;;8.70;1.87;;;13.10;99.90;;;;;;5064629;28;20507;-68
2024/04/05 02:34:05;;;;;;;7.40;1.97;;;13.10;99.90;;;;;;5048730;28;20485;-69
2024/04/05 02:36:31;;;;;;;8.30;2.20;;;13.00;99.90;;;;;;5065317;28;20469;-67
2024/04/05 02:38:58;;;;;;;8.80;2.03;;;12.90;99.90;;;;;;5049298;28;20470;-68
2024/04/05 02:41:24;;;;;;;9.03;2.10;;;12.90;99.90;;;;;;5049385;28;20439;-68
2024/04/05 02:43:51;;;;;;;10.03;2.43;;;13.00;99.90;;;;;;5049138;28;20440;-68
2024/04/05 02:46:17;;;;;;;8.70;2.40;;;13.00;99.90;;;;;;5048901;28;20994;-68
2024/04/05 02:48:44;;;;;;;9.27;2.23;;;12.90;99.90;;;;;;5048950;28;20459;-69
2024/04/05 02:51:12;;;;;;;10.23;2.40;;;13.00;99.90;;;;;;5051548;28;20458;-67
2024/04/05 02:53:39;;;;;;;9.90;2.33;;;13.10;99.90;;;;;;5068312;28;20937;-68
2024/04/05 02:56:05;;;;;;;8.60;2.63;;;13.10;99.90;;;;;;5051503;28;21095;-69
2024/04/05 02:58:32;;;;;;;8.53;2.57;;;12.90;99.90;;;;;;5052271;28;20455;-68
2024/04/05 03:00:58;;;;;;;8.63;2.27;;;12.90;99.90;;;;;;5069136;28;20508;-68
2024/04/05 03:03:25;;;;;;;7.90;2.57;;;12.90;99.90;;;;;;5051916;28;20460;-69
2024/04/05 03:05:51;;;;;;;12.53;3.33;;;12.80;99.90;;;;;;5046064;28;20482;-69
2024/04/05 03:08:19;;;;;;;9.50;3.13;;;12.80;99.90;;;;;;5052218;28;20466;-68
2024/04/05 03:10:45;;;;;;;8.83;2.50;;;12.80;99.90;;;;;;5052254;28;20454;-68
2024/04/05 03:13:12;;;;;;;9.33;2.80;;;12.90;99.90;;;;;;5052101;28;21000;-68
2024/04/05 03:15:39;;;;;;;9.63;2.63;;;12.90;99.90;;;;;;5052032;28;20916;-68
2024/04/05 03:18:06;;;;;;;8.83;2.87;;;12.80;99.90;;;;;;5052467;28;20861;-68
2024/04/05 03:20:32;;;;;;;9.40;2.50;;;12.70;99.90;;;;;;5068319;28;20813;-68
2024/04/05 03:22:59;;;;;;;9.17;2.30;;;12.80;99.90;;;;;;5051674;28;20444;-68
2024/04/05 03:25:27;;;;;;;9.13;2.20;;;12.80;99.90;;;;;;5050555;28;20491;-68
2024/04/05 03:27:54;;;;;;;7.50;2.30;;;13.00;99.90;;;;;;5068127;28;20461;-68
2024/04/05 03:30:20;;;;;;;8.43;2.80;;;13.00;99.90;;;;;;5051768;28;20443;-68
2024/04/05 03:32:47;;;;;;;8.77;2.30;;;13.00;99.90;;;;;;5051638;28;21030;-68
2024/04/05 03:35:14;;;;;;;8.20;2.10;;;12.90;99.90;;;;;;5051773;28;20459;-69
2024/04/05 03:37:41;;;;;;;10.97;2.17;;;12.90;99.90;;;;;;5051268;28;20465;-68
2024/04/05 03:40:09;;;;;;;7.43;1.97;;;12.70;99.90;;;;;;5052009;28;20528;-68
2024/04/05 03:42:37;;;;;;;9.37;1.97;;;12.60;99.90;;;;;;5017166;28;20830;-69
2024/04/05 03:45:04;;;;;;;7.37;1.63;;;12.50;99.90;;;;;;5068446;28;20486;-68
2024/04/05 03:47:31;;;;;;;7.97;2.10;;;12.50;99.90;;;;;;5050935;28;21129;-67
2024/04/05 03:49:58;;;;;;;9.70;2.20;;;12.40;99.90;;;;;;5051908;28;20490;-68
2024/04/05 03:52:24;;;;;;;8.13;2.10;;;12.50;99.90;;;;;;5052007;28;20446;-69
2024/04/05 03:54:51;;;;;;;8.20;2.13;;;12.60;99.90;;;;;;5050872;28;20467;-69
2024/04/05 03:57:17;;;;;;;8.30;2.17;;;12.40;99.90;;;;;;5051193;28;20460;-68
2024/04/05 03:59:46;;;;;;;7.83;2.30;;;12.30;99.90;;;;;;5050857;28;20439;-68
2024/04/05 04:02:12;;;;;;;7.97;2.00;;;12.40;99.90;;;;;;5050441;28;20462;-69
2024/04/05 04:04:39;;;;;;;7.30;2.00;;;12.30;99.90;;;;;;5066894;28;20556;-68
2024/04/05 04:07:05;;;;;;;7.90;2.17;;;12.20;99.90;;;;;;5048707;28;20443;-68
2024/04/05 04:09:32;;;;;;;8.00;2.33;;;12.30;99.90;;;;;;5048204;28;20491;-68
2024/04/05 04:11:58;;;;;;;7.90;2.73;;;12.40;99.90;;;;;;5050674;28;20447;-67
2024/04/05 04:14:25;;;;;;;12.00;2.80;;;12.30;99.90;;;;;;5050254;28;20462;-67
2024/04/05 04:16:52;;;;;;;8.80;2.20;;;12.20;99.90;;;;;;5050760;28;20513;-68
2024/04/05 04:19:19;;;;;;;9.90;2.53;;;12.40;99.90;;;;;;5050786;28;20451;-68
2024/04/05 04:21:47;;;;;;;8.10;1.90;;;12.40;99.90;;;;;;5050899;28;20944;-68
2024/04/05 04:24:16;;;;;;;7.57;2.30;;;12.20;99.90;;;;;;5067106;28;20463;-68
2024/04/05 04:26:42;;;;;;;9.27;2.87;;;12.20;99.90;;;;;;5055075;28;20450;-68
2024/04/05 04:29:08;;;;;;;10.00;3.00;;;12.50;99.90;;;;;;5051053;28;20438;-68
2024/04/05 04:31:35;;;;;;;11.30;2.83;;;12.50;99.90;;;;;;5072581;28;20455;-68
2024/04/05 04:34:03;;;;;;;10.57;2.90;;;12.40;99.90;;;;;;5049839;28;20526;-68
2024/04/05 04:36:30;;;;;;;8.23;2.77;;;12.30;99.90;;;;;;5050242;28;20459;-68
2024/04/05 04:38:57;;;;;;;11.07;3.20;;;12.20;99.90;;;;;;5050981;28;20455;-69
2024/04/05 04:41:23;;;;;;;10.50;2.73;;;12.10;99.90;;;;;;5049085;28;20945;-69
2024/04/05 04:43:52;;;;;;;9.67;2.80;;;12.00;99.90;;;;;;5050241;28;20442;-68
2024/04/05 04:46:18;;;;;;;9.53;3.40;;;11.90;99.90;;;;;;5050326;28;20521;-69
2024/04/05 04:48:45;;;;;;;12.93;3.80;;;11.90;99.90;;;;;;5055347;28;21157;-68
2024/04/05 04:51:14;;;;;;;10.50;3.73;;;11.80;99.90;;;;;;5067248;28;20449;-68
2024/04/05 04:53:41;;;;;;;9.80;3.10;;;11.80;99.90;;;;;;5049811;28;20443;-69
2024/04/05 04:56:07;;;;;;;9.73;3.60;;;11.80;99.90;;;;;;5050325;28;20479;-69
2024/04/05 04:58:34;;;;;;;9.13;3.50;;;11.70;99.90;;;;;;5066245;28;20890;-69
2024/04/05 05:01:00;;;;;;;9.63;4.00;;;11.60;99.90;;;;;;5050716;28;20443;-69
2024/04/05 05:03:27;;;;;;;14.33;5.33;;;11.60;99.90;;;;;;5049793;28;20866;-68
2024/04/05 05:05:53;;;;;;;11.90;3.90;;;11.50;99.90;;;;;;5048819;28;20683;-69
2024/04/05 05:08:21;;;;;;;9.83;3.83;;;11.60;99.90;;;;;;5049731;28;20548;-68
2024/04/05 05:10:47;;;;;;;8.60;2.93;;;11.80;99.90;;;;;;5045476;28;20465;-69
2024/04/05 05:13:14;;;;;;;8.70;3.07;;;11.70;99.90;;;;;;5049723;28;20442;-69
2024/04/05 05:15:41;;;;;;;10.20;3.50;;;11.70;99.90;;;;;;5052989;28;20455;-68
2024/04/05 05:18:08;;;;;;;9.87;3.50;;;11.70;99.90;;;;;;5050274;28;20455;-69
2024/04/05 05:20:34;;;;;;;11.67;3.50;;;11.70;99.90;;;;;;5049815;28;20443;-68
2024/04/05 05:23:02;;;;;;;11.53;3.30;;;11.80;99.90;;;;;;5049947;28;20454;-68
2024/04/05 05:25:29;;;;;;;8.23;2.50;;;11.90;99.90;;;;;;5050880;28;20494;-69
2024/04/05 05:27:56;;;;;;;11.70;2.90;;;11.90;99.90;;;;;;5049902;28;20496;-68
2024/04/05 05:30:22;;;;;;;11.13;3.13;;;11.80;99.90;;;;;;5049518;28;20459;-69
2024/04/05 05:32:49;;;;;;;8.70;3.33;;;11.80;99.90;;;;;;5049478;28;20453;-69
2024/04/05 05:35:15;;;;;;;8.60;3.53;;;11.60;99.90;;;;;;5050010;28;20463;-69
2024/04/05 05:37:42;;;;;;;11.00;3.40;;;11.60;99.90;;;;;;5049531;28;20944;-68
2024/04/05 05:40:09;;;;;;;15.33;3.93;;;11.50;99.90;;;;;;5066297;28;20520;-69
2024/04/05 05:42:37;;;;;;;11.13;3.70;;;11.40;99.90;;;;;;5049659;28;20474;-69
2024/04/05 05:45:05;;;;;;;12.50;3.73;;;11.30;99.90;;;;;;5049596;28;20490;-69
2024/04/05 05:47:31;;;;;;;10.43;4.13;;;11.20;99.90;;;;;;5049643;28;20466;-68
2024/04/05 05:49:57;;;;;;;14.53;4.20;;;11.20;99.90;;;;;;5049630;28;20471;-69
2024/04/05 05:52:24;;;;;;;10.50;3.50;;;11.20;99.90;;;;;;5053297;28;20535;-69
2024/04/05 05:54:51;;;;;;;11.30;4.60;;;11.20;99.90;;;;;;5048966;28;20463;-69
2024/04/05 05:57:19;;;;;;;10.67;3.73;;;11.30;99.90;;;;;;5066266;28;20474;-68
2024/04/05 05:59:46;;;;;;;13.67;4.37;;;11.40;99.90;;;;;;5049103;28;20469;-69
2024/04/05 06:02:15;;;;;;;12.90;5.13;;;11.40;99.90;;;;;;5054926;28;20467;-69
2024/04/05 06:04:41;;;;;;;10.10;4.27;;;11.40;99.90;;;;;;5049378;28;20884;-69
2024/04/05 06:07:08;;;;;;;10.17;4.00;;;11.40;99.90;;;;;;5049472;28;20487;-69
2024/04/05 06:09:34;;;;;;;11.77;4.10;;;11.60;99.90;;;;;;5051319;28;20992;-68
2024/04/05 06:12:02;;;;;;;10.87;4.00;;;11.80;99.90;;;;;;5047776;28;20634;-69
2024/04/05 06:14:28;;;;;;;12.47;4.23;;;11.90;99.90;;;;;;5048751;28;20444;-67
2024/04/05 06:16:57;;;;;;;14.57;4.77;;;12.20;99.90;;;;;;5049188;28;20462;-69
2024/04/05 06:19:23;;;;;;;11.73;4.60;;;12.30;99.90;;;;;;5066400;28;20544;-68
2024/04/05 06:21:51;;;;;;;9.97;3.63;;;12.30;99.90;;;;;;5049415;28;20458;-68
2024/04/05 06:24:17;;;;;;;11.30;4.10;;;12.40;99.90;;;;;;5049059;28;20488;-68
2024/04/05 06:26:44;;;;;;;9.83;3.50;;;12.40;99.90;;;;;;5052738;28;20485;-69
2024/04/05 06:29:10;;;;;;;11.67;4.50;;;12.30;99.90;;;;;;5052765;28;20520;-68
2024/04/05 06:31:37;;;;;;;11.07;3.73;;;12.40;99.90;;;;;;5053018;28;20532;-69
2024/04/05 06:34:06;;;;;;;11.07;4.70;;;12.40;99.90;;;;;;5052404;28;20477;-68
2024/04/05 06:36:33;;;;;;;12.10;3.90;;;12.40;99.90;;;;;;5052626;28;20459;-69
2024/04/05 06:38:59;;;;;;;11.50;4.07;;;12.60;99.90;;;;;;5069589;28;20467;-68
2024/04/05 06:41:26;;;;;;;9.20;3.33;;;12.70;99.90;;;;;;5053052;28;20453;-68
2024/04/05 06:43:52;;;;;;;9.77;3.30;;;12.90;99.90;;;;;;5050916;28;20814;-67
2024/04/05 06:46:19;;;;;;;9.00;3.30;;;13.00;99.90;;;;;;5051140;28;20487;-67
2024/04/05 06:48:46;;;;;;;10.60;2.73;;;13.30;99.90;;;;;;5066278;28;20557;-68
2024/04/05 06:51:16;;;;;;;8.90;2.40;;;13.70;99.90;;;;;;5050915;28;20472;-67
2024/04/05 06:53:43;;;;;;;9.93;3.00;;;13.90;99.90;;;;;;5050560;28;20455;-68
2024/04/05 06:56:10;;;;;;;9.53;2.80;;;14.20;99.90;;;;;;5047788;28;20468;-67
2024/04/05 06:58:37;;;;;;;8.50;2.47;;;14.60;99.90;;;;;;5056396;28;20471;-68
2024/04/05 07:01:05;;;;;;;8.70;2.27;;;14.90;99.90;;;;;;5047337;28;20466;-68
2024/04/05 07:03:31;;;;;;;8.23;2.70;;;15.00;99.90;;;;;;5066264;28;20474;-67
2024/04/05 07:06:02;;;;;;;9.53;1.83;;;15.10;99.90;;;;;;5050322;28;20536;-69
2024/04/05 07:08:30;;;;;;;8.53;1.70;;;15.20;99.90;;;;;;5050331;28;20465;-68
2024/04/05 07:10:58;;;;;;;8.33;2.23;;;15.30;99.90;;;;;;5049289;28;20462;-69
2024/04/05 07:13:25;;;;;;;7.60;2.13;;;15.40;99.90;;;;;;5067317;28;20544;-68
2024/04/05 07:15:53;;;;;;;7.20;1.53;;;15.50;99.90;;;;;;5060637;28;20457;-67
2024/04/05 07:18:22;;;;;;;7.73;1.43;;;15.80;99.90;;;;;;5051394;28;20470;-67
2024/04/05 07:20:49;;;;;;;7.53;1.90;;;16.00;99.90;;;;;;5053357;28;20470;-68
2024/04/05 07:23:15;;;;;;;7.63;1.90;;;16.00;99.90;;;;;;5050622;28;20471;-69
2024/04/05 07:25:43;;;;;;;7.70;1.70;;;16.00;99.90;;;;;;5049465;28;20556;-68
2024/04/05 07:28:09;;;;;;;7.97;1.60;;;15.90;99.90;;;;;;5049134;28;20455;-68
2024/04/05 07:30:37;;;;;;;9.87;1.83;;;16.00;99.90;;;;;;5067153;28;21005;-69
2024/04/05 07:33:03;;;;;;;10.40;1.77;;;16.00;99.90;;;;;;5049729;28;20450;-68
2024/04/05 07:35:30;;;;;;;6.90;1.73;;;16.10;99.90;;;;;;5050160;28;20486;-67
2024/04/05 07:37:56;;;;;;;6.90;1.30;;;16.30;99.90;;;;;;5051745;28;20496;-68
2024/04/05 07:40:26;;;;;;;9.03;1.70;;;16.50;99.90;;;;;;5067697;28;20467;-68
2024/04/05 07:42:54;;;;;;;6.83;1.23;;;16.60;99.90;;;;;;5050093;28;20466;-67
2024/04/05 07:45:24;;;;;;;7.47;1.50;;;16.80;99.90;;;;;;5050162;28;20490;-68
2024/04/05 07:47:51;;;;;;;7.30;1.27;;;16.90;99.90;;;;;;5051774;28;20475;-67
2024/04/05 07:50:19;;;;;;;7.30;1.70;;;16.90;99.90;;;;;;5051943;28;20447;-67
2024/04/05 07:52:46;;;;;;;7.63;1.40;;;16.90;99.90;;;;;;5050492;28;20555;-68
2024/04/05 07:55:13;;;;;;;6.40;1.50;;;17.10;99.90;;;;;;5050828;28;20526;-66
2024/04/05 07:57:40;;;;;;;7.10;1.60;;;17.30;99.90;;;;;;5052305;28;20475;-68
2024/04/05 08:00:14;;;;;;;7.70;1.70;;;17.50;99.90;;;;;;5050435;28;20454;-68
2024/04/05 08:02:40;;;;;;;8.35;1.50;;;17.60;99.90;;;;;;5049575;28;20453;-74
2024/04/05 08:05:07;;;;;;;7.83;1.60;;;17.80;99.90;;;;;;5049920;28;20228;-68
2024/04/05 08:07:33;;;;;;;7.73;1.93;;;17.80;99.90;;;;;;5049568;28;20450;-69
2024/04/05 08:10:00;;;;;;;8.10;1.77;;;17.70;99.90;;;;;;5050349;28;20509;-68
2024/04/05 08:12:26;;;;;;;8.30;1.70;;;17.70;99.90;;;;;;5063560;28;20822;-71
2024/04/05 08:14:54;;;;;;;7.90;1.87;;;17.50;99.90;;;;;;5060544;28;20473;-69
2024/04/05 08:17:21;;;;;;;7.67;1.80;;;17.30;99.90;;;;;;5042580;28;20459;-68
2024/04/05 08:19:51;;;;;;;7.53;1.87;;;17.20;99.90;;;;;;5047393;28;21184;-72
2024/04/05 08:22:17;;;;;;;8.50;1.90;;;17.10;99.90;;;;;;5048363;28;20483;-69
2024/04/05 08:24:44;;;;;;;8.73;1.90;;;17.20;99.90;;;;;;5046539;28;20467;-69
2024/04/05 08:27:19;;;;;;;7.90;1.70;;;17.30;99.90;;;;;;5046978;28;20475;-70
2024/04/05 08:29:46;;;;;;;6.70;1.40;;;17.40;99.90;;;;;;5039858;28;20448;-68
2024/04/05 08:32:12;;;;;;;7.10;1.40;;;17.40;99.90;;;;;;5048139;28;20471;-67
2024/04/05 08:34:43;;;;;;;6.47;1.40;;;17.40;99.90;;;;;;5069061;28;20476;-68
2024/04/05 08:37:09;;;;;;;11.13;1.47;;;17.50;99.90;;;;;;5051518;28;20470;-70
2024/04/05 08:39:36;;;;;;;7.50;1.30;;;17.70;99.90;;;;;;5065181;28;20448;-68
2024/04/05 08:42:10;;;;;;;7.97;1.60;;;17.80;99.90;;;;;;5047693;28;20444;-67
2024/04/05 08:44:38;;;;;;;6.57;1.10;;;18.00;99.90;;;;;;5047594;28;21024;-68
2024/04/05 08:47:04;;;;;;;8.43;1.80;;;18.30;99.90;;;;;;5065096;28;20483;-68
2024/04/05 08:49:34;;;;;;;8.27;1.50;;;18.60;99.90;;;;;;5058439;28;20448;-68
2024/04/05 08:52:02;;;;;;;7.73;1.77;;;18.70;99.90;;;;;;5065363;28;20439;-69
2024/04/05 08:54:29;;;;;;;7.60;1.50;;;18.80;99.90;;;;;;5057195;28;21284;-69
2024/04/05 08:56:55;;;;;;;7.33;1.30;;;18.90;99.90;;;;;;5067394;28;21072;-69
2024/04/05 08:59:23;;;;;;;7.93;2.20;;;18.90;99.90;;;;;;5068115;28;20443;-70
2024/04/05 09:01:51;;;;;;;8.57;1.80;;;19.00;99.90;;;;;;5045814;28;20452;-67
2024/04/05 09:04:18;;;;;;;6.80;1.37;;;19.20;99.90;;;;;;5047625;28;20449;-67
2024/04/05 09:06:44;;;;;;;9.63;1.83;;;19.40;99.90;;;;;;5048589;28;20478;-69
2024/04/05 09:09:13;;;;;;;8.07;1.73;;;19.60;99.90;;;;;;5066478;28;20473;-69
2024/04/05 09:11:39;;;;;;;8.73;1.77;;;19.90;99.90;;;;;;5065920;28;20450;-67
2024/04/05 09:14:07;;;;;;;6.50;1.33;;;20.00;99.90;;;;;;5048626;28;20440;-68
2024/04/05 09:16:34;;;;;;;7.93;1.67;;;20.00;99.90;;;;;;5035053;28;20459;-69
2024/04/05 09:19:08;;;;;;;9.23;1.80;;;20.10;99.90;;;;;;5045320;28;20432;-69
2024/04/05 09:21:35;;;;;;;9.23;1.60;;;20.20;99.90;;;;;;5052484;28;20478;-66
2024/04/05 09:24:02;;;;;;;7.43;1.30;;;20.50;99.90;;;;;;5065278;28;20518;-69
2024/04/05 09:26:30;;;;;;;6.47;1.40;;;21.00;99.90;;;;;;5039810;28;20488;-69
2024/04/05 09:29:00;;;;;;;7.50;1.60;;;21.20;99.90;;;;;;5064733;28;20464;-67
2024/04/05 09:31:28;;;;;;;8.60;1.53;;;21.70;98.50;;;;;;5041663;28;20478;-67
2024/04/05 09:34:05;;;;;;;7.43;1.40;;;22.10;97.70;;;;;;5047808;28;20485;-68
2024/04/05 09:36:34;;;;;;;7.40;2.00;;;22.30;95.90;;;;;;5047022;28;20470;-68
2024/04/05 09:39:02;;;;;;;8.60;1.40;;;22.50;93.90;;;;;;5054396;28;20497;-68
2024/04/05 09:41:33;;;;;;;8.27;1.70;;;22.60;94.20;;;;;;5048802;28;20490;-70
2024/04/05 09:44:02;;;;;;;7.77;1.40;;;22.80;92.90;;;;;;5063300;28;20455;-69
2024/04/05 09:46:29;;;;;;;7.43;1.67;;;23.20;92.80;;;;;;5047215;28;21057;-68
2024/04/05 09:48:55;;;;;;;9.27;2.00;;;23.30;92.80;;;;;;5047528;28;20937;-69
2024/04/05 09:51:26;;;;;;;8.20;1.63;;;23.40;91.10;;;;;;5049897;28;20450;-68
2024/04/05 09:53:53;;;;;;;7.67;1.50;;;23.40;87.90;;;;;;5036501;28;20506;-68
2024/04/05 09:56:24;;;;;;;7.90;1.43;;;23.50;88.60;;;;;;5047716;28;20455;-67
2024/04/05 09:58:54;;;;;;;6.90;1.30;;;23.40;85.70;;;;;;5047842;28;20447;-68
2024/04/05 10:01:22;;;;;;;8.90;1.40;;;23.60;82.30;;;;;;5049499;28;20450;-70
2024/04/05 10:03:48;;;;;;;8.10;1.53;;;23.60;81.90;;;;;;5056430;28;20459;-67
2024/04/05 10:06:16;;;;;;;7.67;1.40;;;23.70;84.30;;;;;;5052369;28;20486;-67
2024/04/05 10:08:42;;;;;;;7.30;1.43;;;23.60;82.90;;;;;;5051658;28;20450;-68
2024/04/05 10:11:11;;;;;;;7.83;1.27;;;23.60;85.20;;;;;;5052794;28;20450;-67
2024/04/05 10:13:38;;;;;;;6.87;1.23;;;23.80;81.10;;;;;;5048517;28;21233;-68
2024/04/05 10:16:08;;;;;;;7.67;1.67;;;24.00;80.00;;;;;;5062149;28;20467;-69
2024/04/05 10:18:37;;;;;;;7.30;1.30;;;24.30;75.20;;;;;;5053990;28;20967;-67
2024/04/05 10:21:08;;;;;;;8.00;1.40;;;24.30;74.70;;;;;;5048032;28;20517;-68
2024/04/05 10:23:35;;;;;;;7.40;1.10;;;24.30;74.30;;;;;;5068678;28;20825;-69
2024/04/05 10:26:02;;;;;;;8.83;1.53;;;24.30;73.60;;;;;;5051995;28;20466;-67
2024/04/05 10:28:29;;;;;;;6.27;0.97;;;24.50;68.80;;;;;;5051309;28;20447;-67
2024/04/05 10:30:56;;;;;;;6.43;0.97;;;24.60;67.10;;;;;;5065965;28;20459;-67
2024/04/05 10:33:24;;;;;;;8.00;1.23;;;24.80;68.70;;;;;;5073813;28;20457;-69
2024/04/05 10:35:51;;;;;;;6.50;1.00;;;24.80;64.50;;;;;;5051984;28;20845;-68
2024/04/05 10:38:18;;;;;;;6.93;0.97;;;25.10;63.80;;;;;;5064746;28;20448;-68
2024/04/05 10:40:56;;;;;;;7.17;1.07;;;25.40;63.80;;;;;;5054000;28;20443;-68
2024/04/05 10:43:22;;;;;;;6.57;1.17;;;25.80;60.10;;;;;;5047673;28;20517;-67
2024/04/05 10:45:53;;;;;;;6.70;0.70;;;26.20;58.60;;;;;;5070317;28;21154;-66
2024/04/05 10:48:19;;;;;;;6.10;0.70;;;26.20;57.50;;;;;;5052563;28;20439;-67
2024/04/05 10:50:48;;;;;;;6.90;1.00;;;26.00;56.90;;;;;;5054521;28;20952;-66
2024/04/05 10:53:16;;;;;;;6.17;0.90;;;25.90;56.30;;;;;;5072286;28;20971;-68
2024/04/05 10:55:43;;;;;;;7.40;1.03;;;25.60;56.20;;;;;;5050343;28;20471;-67
2024/04/05 10:58:10;;;;;;;9.93;1.70;;;25.30;56.80;;;;;;5075229;28;20453;-66
2024/04/05 11:00:38;;;;;;;6.97;1.03;;;24.80;55.90;;;;;;5059920;28;20440;-67
2024/04/05 11:03:07;;;;;;;7.20;1.07;;;24.40;56.20;;;;;;5060219;28;20825;-68
2024/04/05 11:05:34;;;;;;;6.93;1.00;;;24.10;58.00;;;;;;5059618;28;20474;-67
2024/04/05 11:08:03;;;;;;;7.03;0.90;;;24.20;58.50;;;;;;5054849;28;20850;-67
2024/04/05 11:10:32;;;;;;;7.10;1.20;;;24.10;58.50;;;;;;5056364;28;20447;-65
2024/04/05 11:12:59;;;;;;;6.07;0.77;;;24.30;57.90;;;;;;5049631;28;20477;-68
2024/04/05 11:15:26;;;;;;;7.63;1.00;;;24.40;56.80;;;;;;5064843;28;21244;-66
2024/04/05 11:17:59;;;;;;;6.83;1.20;;;24.70;56.60;;;;;;5057588;28;20432;-67
2024/04/05 11:20:29;;;;;;;6.00;0.90;;;25.00;58.10;;;;;;5048491;28;20443;-67
2024/04/05 11:22:56;;;;;;;8.30;1.17;;;25.10;56.90;;;;;;5051104;28;20498;-67
2024/04/05 11:25:24;;;;;;;9.03;1.10;;;25.10;55.40;;;;;;5063967;28;20472;-67
2024/04/05 11:27:50;;;;;;;7.10;1.20;;;25.00;56.20;;;;;;5044549;28;20539;-68
2024/04/05 11:30:17;;;;;;;6.40;1.10;;;24.80;55.40;;;;;;5045968;28;20457;-67
2024/04/05 11:32:43;;;;;;;7.00;1.07;;;24.60;54.90;;;;;;5065729;28;20446;-67
2024/04/05 11:35:12;;;;;;;7.20;1.00;;;24.70;56.40;;;;;;5051068;28;20521;-66
2024/04/05 11:37:38;;;;;;;6.80;1.00;;;24.70;55.70;;;;;;5056475;28;20838;-66
2024/04/05 11:40:09;;;;;;;7.17;1.00;;;24.50;54.30;;;;;;5056539;28;20447;-67
2024/04/05 11:42:37;;;;;;;6.93;1.10;;;24.10;53.50;;;;;;5055696;28;20467;-64
2024/04/05 11:45:06;;;;;;;6.97;1.07;;;23.70;54.40;;;;;;5055773;28;20482;-67
2024/04/05 11:47:32;;;;;;;7.50;1.70;;;23.30;54.00;;;;;;5073467;28;20533;-66
2024/04/05 11:50:00;;;;;;;6.47;0.80;;;23.00;55.60;;;;;;5048979;28;20443;-66
2024/04/05 11:52:26;;;;;;;7.27;1.43;;;23.00;55.60;;;;;;5054425;28;20455;-66
2024/04/05 11:54:53;;;;;;;6.93;1.10;;;23.10;57.60;;;;;;5046782;28;20464;-68
2024/04/05 11:57:20;;;;;;;6.57;0.90;;;23.10;55.90;;;;;;5053627;28;20454;-66
2024/04/05 11:59:48;;;;;;;6.67;0.90;;;23.30;57.60;;;;;;5048088;28;20505;-66
2024/04/05 12:02:14;;;;;;;6.50;0.80;;;23.30;56.60;;;;;;5039329;28;20441;-66
2024/04/05 12:04:41;;;;;;;6.40;0.90;;;23.30;56.10;;;;;;5061844;28;20893;-67
2024/04/05 12:07:09;;;;;;;5.87;0.77;;;23.10;56.30;;;;;;5042394;28;20485;-66
2024/04/05 12:09:37;;;;;;;6.20;0.90;;;23.00;55.30;;;;;;5066290;28;20930;-66
2024/04/05 12:12:04;;;;;;;6.00;0.90;;;23.00;56.20;;;;;;5047887;28;21124;-66
2024/04/05 12:14:32;;;;;;;6.43;0.87;;;22.90;57.30;;;;;;5053507;28;20435;-67
2024/04/05 12:17:00;;;;;;;6.50;0.97;;;23.20;57.00;;;;;;5044209;28;20445;-66
2024/04/05 12:19:27;;;;;;;6.80;1.20;;;23.40;56.40;;;;;;5051141;28;20446;-67
2024/04/05 12:21:53;;;;;;;8.43;1.07;;;23.80;57.60;;;;;;5041147;28;20463;-67
2024/04/05 12:24:20;;;;;;;6.10;0.90;;;24.30;54.50;;;;;;5052929;28;20440;-66
2024/04/05 12:26:46;;;;;;;6.07;0.80;;;24.40;54.30;;;;;;5051094;28;20854;-66
2024/04/05 12:29:13;;;;;;;7.27;1.83;;;24.20;55.30;;;;;;5063929;28;21712;-66
2024/04/05 12:31:39;;;;;;;7.47;1.50;;;24.40;56.20;;;;;;5045036;28;20443;-67
2024/04/05 12:34:08;;;;;;;6.40;0.83;;;24.80;53.80;;;;;;5048265;28;20454;-67
2024/04/05 12:36:34;;;;;;;8.00;1.03;;;24.90;54.50;;;;;;5064274;28;21028;-68
2024/04/05 12:39:07;;;;;;;6.97;1.10;;;25.00;55.10;;;;;;5064782;28;20439;-67
2024/04/05 12:41:33;;;;;;;6.63;1.10;;;25.10;55.40;;;;;;5047248;28;20451;-66
2024/04/05 12:44:00;;;;;;;6.80;0.90;;;24.70;54.10;;;;;;5048294;28;20509;-67
2024/04/05 12:46:26;;;;;;;6.50;1.10;;;24.10;55.20;;;;;;5047691;28;20486;-67